createdAt,value
2023-02-14T00:01:26.617Z,101883.00
2023-02-14T00:03:54.698Z,101885.75
2023-02-14T00:06:22.341Z,101892.44
2023-02-14T00:08:52.326Z,101882.00
2023-02-14T00:11:20.652Z,101887.13
2023-02-14T00:14:07.331Z,101896.81
2023-02-14T00:19:05.422Z,101898.41
2023-02-14T00:21:36.367Z,101900.19
2023-02-14T00:24:06.064Z,101887.94
2023-02-14T00:26:34.438Z,101897.41
2023-02-14T00:29:02.196Z,101904.34
2023-02-14T00:31:30.448Z,101900.13
2023-02-14T00:33:58.167Z,101900.81
2023-02-14T00:36:26.593Z,101906.25
2023-02-14T00:38:54.171Z,101900.88
2023-02-14T00:41:22.662Z,101895.63
2023-02-14T00:43:54.791Z,101902.69
2023-02-14T00:46:24.564Z,101896.56
2023-02-14T00:48:53.011Z,101902.56
2023-02-14T00:51:21.853Z,101908.66
2023-02-14T00:53:51.535Z,101911.38
2023-02-14T00:56:20.299Z,101910.28
2023-02-14T00:58:48.223Z,101909.44
2023-02-14T01:01:19.310Z,101909.53
2023-02-14T01:03:47.500Z,101913.56
2023-02-14T01:06:15.743Z,101907.75
2023-02-14T01:08:43.392Z,101902.56
2023-02-14T01:11:13.700Z,101905.31
2023-02-14T01:13:41.512Z,101899.84
2023-02-14T01:16:12.453Z,101902.59
2023-02-14T01:18:41.304Z,101915.38
2023-02-14T01:21:23.382Z,101909.31
2023-02-14T01:23:53.179Z,101915.41
2023-02-14T01:26:23.127Z,101905.03
2023-02-14T01:28:51.219Z,101901.34
2023-02-14T01:31:24.162Z,101901.38
2023-02-14T01:33:52.467Z,101904.00
2023-02-14T01:36:24.593Z,101911.75
2023-02-14T01:38:56.774Z,101912.81
2023-02-14T01:41:25.928Z,101919.78
2023-02-14T01:44:04.134Z,101920.44
2023-02-14T01:46:37.517Z,101926.47
2023-02-14T01:49:20.513Z,101912.59
2023-02-14T01:52:11.841Z,101911.59
2023-02-14T01:54:46.277Z,101909.94
2023-02-14T01:57:18.288Z,101918.00
2023-02-14T01:59:53.588Z,101914.34
2023-02-14T02:02:23.962Z,101916.81
2023-02-14T02:04:55.757Z,101910.97
2023-02-14T02:07:29.321Z,101912.44
2023-02-14T02:10:02.762Z,101915.88
2023-02-14T02:12:31.113Z,101916.63
2023-02-14T02:15:00.071Z,101912.41
2023-02-14T02:17:38.235Z,101918.56
2023-02-14T02:20:42.186Z,101910.81
2023-02-14T02:23:17.954Z,101910.94
2023-02-14T02:26:07.403Z,101917.59
2023-02-14T02:28:44.277Z,101919.19
2023-02-14T02:31:20.329Z,101913.06
2023-02-14T02:34:22.892Z,101911.19
2023-02-14T02:37:11.987Z,101918.31
2023-02-14T02:40:16.677Z,101915.59
2023-02-14T02:43:15.378Z,101919.22
2023-02-14T02:46:30.583Z,101914.09
2023-02-14T02:49:41.897Z,101931.13
2023-02-14T02:53:00.893Z,101933.69
2023-02-14T02:56:21.792Z,101935.31
2023-02-14T02:59:06.706Z,101925.84
2023-02-14T03:01:38.129Z,101934.25
2023-02-14T03:04:29.644Z,101931.78
2023-02-14T03:07:00.697Z,101940.78
2023-02-14T03:09:29.558Z,101936.16
2023-02-14T03:12:34.610Z,101940.41
2023-02-14T03:15:30.335Z,101946.69
2023-02-14T03:18:03.833Z,101938.03
2023-02-14T03:20:49.710Z,101938.91
2023-02-14T03:23:30.441Z,101944.91
2023-02-14T03:26:14.705Z,101941.34
2023-02-14T03:28:57.694Z,101943.09
2023-02-14T03:31:36.471Z,101948.31
2023-02-14T03:34:25.109Z,101946.41
2023-02-14T03:37:12.527Z,101944.16
2023-02-14T03:40:02.092Z,101944.66
2023-02-14T03:42:45.907Z,101951.41
2023-02-14T03:45:22.559Z,101947.06
2023-02-14T03:47:51.643Z,101952.31
2023-02-14T03:50:20.711Z,101952.16
2023-02-14T03:52:53.515Z,101955.47
2023-02-14T03:55:39.358Z,101954.69
2023-02-14T03:58:13.034Z,101951.06
2023-02-14T04:00:43.673Z,101961.38
2023-02-14T04:03:15.236Z,101947.50
2023-02-14T04:05:46.770Z,101950.00
2023-02-14T04:08:22.751Z,101949.94
2023-02-14T04:10:52.585Z,101943.19
2023-02-14T04:13:21.146Z,101949.19
2023-02-14T04:15:48.928Z,101953.47
2023-02-14T04:18:35.313Z,101958.59
2023-02-14T04:21:02.891Z,101955.13
2023-02-14T04:23:30.785Z,101966.34
2023-02-14T04:25:58.597Z,101961.28
2023-02-14T04:28:26.430Z,101962.78
2023-02-14T04:30:54.007Z,101967.31
2023-02-14T04:33:22.063Z,101969.72
2023-02-14T04:35:49.996Z,101960.25
2023-02-14T04:38:17.784Z,101970.59
2023-02-14T04:40:45.452Z,101971.91
2023-02-14T04:43:13.306Z,101967.59
2023-02-14T04:45:40.956Z,101969.31
2023-02-14T04:48:08.896Z,101973.84
2023-02-14T04:50:36.569Z,101980.81
2023-02-14T04:53:04.398Z,101980.63
2023-02-14T04:55:31.987Z,101983.38
2023-02-14T04:57:59.769Z,101973.88
2023-02-14T05:00:27.458Z,101985.00
2023-02-14T05:02:55.376Z,101981.69
2023-02-14T05:05:22.987Z,101987.69
2023-02-14T05:07:50.816Z,101986.00
2023-02-14T05:10:18.554Z,101979.81
2023-02-14T05:12:46.387Z,101981.50
2023-02-14T05:15:13.943Z,101985.09
2023-02-14T05:17:41.799Z,101984.88
2023-02-14T05:20:10.071Z,101985.94
2023-02-14T05:22:38.039Z,102000.59
2023-02-14T05:25:05.876Z,101999.69
2023-02-14T05:27:33.701Z,101998.22
2023-02-14T05:30:01.247Z,101998.84
2023-02-14T05:32:29.251Z,102007.44
2023-02-14T05:34:56.855Z,102000.38
2023-02-14T05:37:24.668Z,101998.91
2023-02-14T05:39:52.263Z,101998.78
2023-02-14T05:42:20.122Z,102000.59
2023-02-14T05:44:48.761Z,101990.19
2023-02-14T05:47:16.559Z,101998.66
2023-02-14T05:49:44.042Z,102005.72
2023-02-14T05:52:11.991Z,101998.72
2023-02-14T05:54:39.500Z,101995.47
2023-02-14T05:57:07.481Z,101996.28
2023-02-14T05:59:35.029Z,102005.75
2023-02-14T06:02:02.971Z,102007.34
2023-02-14T06:04:30.692Z,102009.06
2023-02-14T06:06:58.666Z,102012.56
2023-02-14T06:09:26.258Z,102015.97
2023-02-14T06:11:55.373Z,102028.25
2023-02-14T06:14:23.037Z,102026.69
2023-02-14T06:16:50.980Z,102023.06
2023-02-14T06:19:18.616Z,102022.28
2023-02-14T06:21:46.923Z,102023.78
2023-02-14T06:24:14.764Z,102028.00
2023-02-14T06:26:42.797Z,102038.59
2023-02-14T06:29:10.474Z,102027.38
2023-02-14T06:31:38.491Z,102034.97
2023-02-14T06:34:06.196Z,102026.50
2023-02-14T06:36:34.293Z,102037.56
2023-02-14T06:39:01.880Z,102021.50
2023-02-14T06:41:29.979Z,102027.28
2023-02-14T06:43:57.561Z,102029.91
2023-02-14T06:46:25.995Z,102028.09
2023-02-14T06:48:53.527Z,102028.81
2023-02-14T06:51:21.310Z,102025.50
2023-02-14T06:53:48.835Z,102034.25
2023-02-14T06:56:16.624Z,102028.09
2023-02-14T06:58:44.234Z,102027.19
2023-02-14T07:01:12.243Z,102038.41
2023-02-14T07:03:39.946Z,102045.53
2023-02-14T07:06:07.896Z,102035.38
2023-02-14T07:08:35.419Z,102031.19
2023-02-14T07:11:03.485Z,102043.22
2023-02-14T07:13:31.164Z,102039.72
2023-02-14T07:15:59.095Z,102042.84
2023-02-14T07:18:26.830Z,102052.19
2023-02-14T07:20:54.667Z,102050.59
2023-02-14T07:23:22.377Z,102048.06
2023-02-14T07:25:50.365Z,102055.69
2023-02-14T07:28:17.997Z,102063.81
2023-02-14T07:30:46.028Z,102066.28
2023-02-14T07:33:13.890Z,102072.44
2023-02-14T07:35:41.718Z,102080.28
2023-02-14T07:38:09.545Z,102075.91
2023-02-14T07:40:37.373Z,102079.53
2023-02-14T07:43:04.940Z,102082.03
2023-02-14T07:45:32.840Z,102081.91
2023-02-14T07:48:02.282Z,102079.47
2023-02-14T07:50:30.512Z,102086.56
2023-02-14T07:52:58.075Z,102091.94
2023-02-14T07:55:25.911Z,102095.19
2023-02-14T07:57:53.788Z,102095.03
2023-02-14T08:00:22.380Z,102094.09
2023-02-14T08:02:50.140Z,102090.78
2023-02-14T08:05:18.691Z,102094.91
2023-02-14T08:07:50.472Z,102094.22
2023-02-14T08:10:18.539Z,102095.22
2023-02-14T08:13:01.229Z,102110.88
2023-02-14T08:15:50.318Z,102111.34
2023-02-14T08:18:19.049Z,102108.91
2023-02-14T08:20:50.721Z,102096.63
2023-02-14T08:23:20.001Z,102099.22
2023-02-14T08:25:51.804Z,102104.34
2023-02-14T08:28:22.160Z,102105.00
2023-02-14T08:30:50.980Z,102103.41
2023-02-14T08:33:19.427Z,102104.63
2023-02-14T08:35:47.566Z,102113.03
2023-02-14T08:38:15.186Z,102120.09
2023-02-14T08:40:43.402Z,102111.59
2023-02-14T08:43:11.672Z,102118.09
2023-02-14T08:45:40.364Z,102114.56
2023-02-14T08:48:11.144Z,102109.53
2023-02-14T08:50:39.984Z,102114.47
2023-02-14T08:53:10.169Z,102116.50
2023-02-14T08:55:40.150Z,102119.31
2023-02-14T08:58:08.237Z,102111.72
2023-02-14T09:00:36.229Z,102117.56
2023-02-14T09:03:04.036Z,102115.31
2023-02-14T09:05:33.331Z,102119.03
2023-02-14T09:08:03.278Z,102108.81
2023-02-14T09:10:31.515Z,102111.78
2023-02-14T09:12:59.159Z,102115.03
2023-02-14T09:15:27.047Z,102118.72
2023-02-14T09:17:54.830Z,102121.22
2023-02-14T09:20:22.839Z,102121.00
2023-02-14T09:22:50.539Z,102127.16
2023-02-14T09:25:18.438Z,102125.69
2023-02-14T09:27:46.058Z,102117.09
2023-02-14T09:30:14.649Z,102128.75
2023-02-14T09:32:42.536Z,102133.41
2023-02-14T09:35:10.332Z,102131.50
2023-02-14T09:37:37.933Z,102129.84
2023-02-14T09:40:06.578Z,102139.56
2023-02-14T09:42:53.206Z,102141.97
2023-02-14T09:45:25.379Z,102132.63
2023-02-14T09:48:32.230Z,102129.19
2023-02-14T09:51:11.906Z,102136.50
2023-02-14T09:54:04.813Z,102135.53
2023-02-14T09:56:54.373Z,102132.94
2023-02-14T09:59:34.436Z,102134.56
2023-02-14T10:02:34.552Z,102118.13
2023-02-14T10:05:32.355Z,102130.06
2023-02-14T10:08:06.154Z,102128.59
2023-02-14T10:10:45.519Z,102126.84
2023-02-14T10:13:46.349Z,102129.25
2023-02-14T10:16:13.855Z,102125.97
2023-02-14T10:18:49.960Z,102128.78
2023-02-14T10:21:33.815Z,102129.63
2023-02-14T10:24:16.278Z,102122.69
2023-02-14T10:26:45.410Z,102126.88
2023-02-14T10:29:18.358Z,102129.44
2023-02-14T10:31:58.104Z,102131.13
2023-02-14T10:35:00.726Z,102136.31
2023-02-14T10:38:10.314Z,102133.84
2023-02-14T10:40:47.023Z,102136.91
2023-02-14T10:43:20.167Z,102136.19
2023-02-14T10:46:29.859Z,102136.25
2023-02-14T10:49:24.734Z,102136.25
2023-02-14T10:52:15.471Z,102139.66
2023-02-14T10:54:50.944Z,102128.63
2023-02-14T10:57:31.275Z,102142.38
2023-02-14T11:00:07.195Z,102132.91
2023-02-14T11:02:41.319Z,102125.97
2023-02-14T11:05:14.499Z,102122.53
2023-02-14T11:07:45.519Z,102128.69
2023-02-14T11:10:15.950Z,102130.47
2023-02-14T11:12:43.869Z,102130.44
2023-02-14T11:15:20.723Z,102133.03
2023-02-14T11:17:48.891Z,102130.28
2023-02-14T11:20:20.012Z,102126.06
2023-02-14T11:22:47.945Z,102130.22
2023-02-14T11:25:23.017Z,102126.59
2023-02-14T11:28:03.561Z,102124.81
2023-02-14T11:30:42.931Z,102122.44
2023-02-14T11:33:43.286Z,102122.69
2023-02-14T11:36:14.752Z,102119.28
2023-02-14T11:38:54.471Z,102122.75
2023-02-14T11:41:24.452Z,102121.16
2023-02-14T11:44:09.483Z,102116.41
2023-02-14T11:46:52.305Z,102111.09
2023-02-14T11:49:27.572Z,102104.94
2023-02-14T11:51:57.107Z,102111.00
2023-02-14T11:54:30.634Z,102105.19
2023-02-14T11:57:17.464Z,102108.78
2023-02-14T11:59:48.516Z,102101.84
2023-02-14T12:02:32.637Z,102095.81
2023-02-14T12:05:07.019Z,102095.63
2023-02-14T12:07:38.008Z,102108.66
2023-02-14T12:10:33.477Z,102098.41
2023-02-14T12:13:26.038Z,102093.22
2023-02-14T12:15:56.524Z,102096.44
2023-02-14T12:18:39.311Z,102098.81
2023-02-14T12:21:12.853Z,102082.47
2023-02-14T12:23:56.817Z,102091.63
2023-02-14T12:26:43.633Z,102081.50
2023-02-14T12:29:34.300Z,102086.66
2023-02-14T12:32:18.353Z,102086.59
2023-02-14T12:34:46.057Z,102084.16
2023-02-14T12:37:27.470Z,102081.53
2023-02-14T12:40:16.193Z,102082.94
2023-02-14T12:43:20.588Z,102088.09
2023-02-14T12:45:49.030Z,102078.78
2023-02-14T12:48:33.492Z,102081.53
2023-02-14T12:51:19.244Z,102079.13
2023-02-14T12:53:49.729Z,102068.53
2023-02-14T12:56:33.612Z,102070.34
2023-02-14T12:59:23.170Z,102076.38
2023-02-14T13:01:55.354Z,102072.94
2023-02-14T13:04:46.741Z,102074.69
2023-02-14T13:07:26.799Z,102072.13
2023-02-14T13:10:14.635Z,102068.59
2023-02-14T13:13:04.626Z,102074.69
2023-02-14T13:15:46.602Z,102079.00
2023-02-14T13:18:36.159Z,102075.44
2023-02-14T13:21:08.433Z,102082.09
2023-02-14T13:23:45.332Z,102061.31
2023-02-14T13:26:31.338Z,102074.28
2023-02-14T13:29:11.075Z,102072.78
2023-02-14T13:31:40.426Z,102079.63
2023-02-14T13:34:29.385Z,102087.97
2023-02-14T13:37:00.693Z,102079.91
2023-02-14T13:39:59.424Z,102091.91
2023-02-14T13:42:49.913Z,102086.69
2023-02-14T13:45:34.873Z,102084.41
2023-02-14T13:48:09.035Z,102092.25
2023-02-14T13:50:40.875Z,102086.16
2023-02-14T13:53:29.286Z,102085.19
2023-02-14T13:55:57.280Z,102083.38
2023-02-14T13:58:25.789Z,102080.91
2023-02-14T14:00:54.743Z,102079.94
2023-02-14T14:03:28.926Z,102079.97
2023-02-14T14:06:11.111Z,102083.44
2023-02-14T14:08:42.285Z,102079.94
2023-02-14T14:11:22.202Z,102082.47
2023-02-14T14:13:58.935Z,102074.69
2023-02-14T14:16:26.794Z,102070.31
2023-02-14T14:18:54.812Z,102066.03
2023-02-14T14:21:46.259Z,102074.63
2023-02-14T14:24:27.761Z,102077.38
2023-02-14T14:27:17.548Z,102071.22
2023-02-14T14:29:47.216Z,102073.03
2023-02-14T14:32:36.324Z,102079.06
2023-02-14T14:35:12.509Z,102088.53
2023-02-14T14:37:55.530Z,102078.97
2023-02-14T14:40:37.447Z,102086.78
2023-02-14T14:43:31.413Z,102086.88
2023-02-14T14:46:02.331Z,102085.91
2023-02-14T14:48:54.967Z,102084.25
2023-02-14T14:51:32.225Z,102072.84
2023-02-14T14:54:02.391Z,102080.72
2023-02-14T14:56:34.280Z,102084.38
2023-02-14T14:59:26.802Z,102083.38
2023-02-14T15:01:55.392Z,102081.47
2023-02-14T15:04:29.512Z,102078.84
2023-02-14T15:07:17.438Z,102086.75
2023-02-14T15:09:45.040Z,102082.41
2023-02-14T15:12:35.036Z,102083.38
2023-02-14T15:15:04.473Z,102082.41
2023-02-14T15:17:33.473Z,102090.28
2023-02-14T15:20:05.579Z,102081.63
2023-02-14T15:22:48.200Z,102090.56
2023-02-14T15:25:21.857Z,102088.56
2023-02-14T15:27:50.572Z,102083.22
2023-02-14T15:30:34.776Z,102088.44
2023-02-14T15:33:04.914Z,102087.41
2023-02-14T15:35:42.173Z,102086.50
2023-02-14T15:38:12.117Z,102090.72
2023-02-14T15:40:40.420Z,102071.63
2023-02-14T15:43:32.022Z,102082.34
2023-02-14T15:46:24.018Z,102085.72
2023-02-14T15:48:53.038Z,102088.44
2023-02-14T15:51:24.743Z,102094.38
2023-02-14T15:53:59.424Z,102083.91
2023-02-14T15:56:30.399Z,102090.88
2023-02-14T15:59:07.139Z,102092.38
2023-02-14T16:01:36.473Z,102094.19
2023-02-14T16:04:06.990Z,102089.59
2023-02-14T16:06:44.450Z,102101.56
2023-02-14T16:09:31.074Z,102101.50
2023-02-14T16:11:58.646Z,102107.31
2023-02-14T16:14:32.521Z,102106.34
2023-02-14T16:17:06.824Z,102109.78
2023-02-14T16:19:41.583Z,102113.00
2023-02-14T16:22:24.432Z,102113.84
2023-02-14T16:24:52.313Z,102112.81
2023-02-14T16:27:19.884Z,102115.00
2023-02-14T16:29:47.685Z,102114.97
2023-02-14T16:32:21.160Z,102118.97
2023-02-14T16:34:49.959Z,102115.41
2023-02-14T16:37:31.632Z,102120.66
2023-02-14T16:40:01.716Z,102127.16
2023-02-14T16:42:29.418Z,102126.84
2023-02-14T16:44:57.780Z,102126.00
2023-02-14T16:47:27.736Z,102126.69
2023-02-14T16:49:55.665Z,102129.03
2023-02-14T16:52:27.019Z,102132.34
2023-02-14T16:54:55.019Z,102132.16
2023-02-14T16:57:44.514Z,102129.69
2023-02-14T17:00:13.465Z,102131.47
2023-02-14T17:02:44.158Z,102134.06
2023-02-14T17:05:12.547Z,102128.38
2023-02-14T17:07:43.567Z,102136.25
2023-02-14T17:10:18.045Z,102143.72
2023-02-14T17:12:47.484Z,102146.00
2023-02-14T17:15:18.794Z,102142.41
2023-02-14T17:17:48.841Z,102147.66
2023-02-14T17:20:19.924Z,102145.13
2023-02-14T17:22:48.091Z,102147.75
2023-02-14T17:25:16.013Z,102157.56
2023-02-14T17:27:44.615Z,102154.59
2023-02-14T17:30:14.591Z,102157.25
2023-02-14T17:32:42.957Z,102167.34
2023-02-14T17:35:11.959Z,102159.53
2023-02-14T17:37:39.674Z,102160.34
2023-02-14T17:40:08.660Z,102158.50
2023-02-14T17:42:38.624Z,102166.00
2023-02-14T17:45:07.363Z,102155.50
2023-02-14T17:47:35.741Z,102158.56
2023-02-14T17:50:03.940Z,102151.44
2023-02-14T17:52:32.174Z,102166.81
2023-02-14T17:55:00.258Z,102160.03
2023-02-14T17:57:27.988Z,102157.94
2023-02-14T17:59:58.114Z,102162.31
2023-02-14T18:02:26.555Z,102159.50
2023-02-14T18:04:55.219Z,102160.25
2023-02-14T18:07:23.784Z,102162.69
2023-02-14T18:09:51.904Z,102160.25
2023-02-14T18:12:19.769Z,102158.75
2023-02-14T18:14:47.692Z,102154.94
2023-02-14T18:17:15.512Z,102157.75
2023-02-14T18:19:43.443Z,102155.84
2023-02-14T18:22:11.558Z,102151.47
2023-02-14T18:24:39.491Z,102151.41
2023-02-14T18:27:07.262Z,102147.25
2023-02-14T18:29:36.382Z,102141.53
2023-02-14T18:32:04.837Z,102152.34
2023-02-14T18:34:35.775Z,102148.38
2023-02-14T18:37:04.472Z,102149.06
2023-02-14T18:39:32.958Z,102149.66
2023-02-14T18:42:01.439Z,102153.94
2023-02-14T18:44:29.562Z,102154.16
2023-02-14T18:46:57.207Z,102150.41
2023-02-14T18:49:24.983Z,102154.56
2023-02-14T18:51:52.547Z,102147.59
2023-02-14T18:54:20.408Z,102151.66
2023-02-14T18:56:48.042Z,102153.28
2023-02-14T18:59:16.868Z,102146.41
2023-02-14T19:01:46.085Z,102152.41
2023-02-14T19:04:14.381Z,102148.03
2023-02-14T19:06:42.822Z,102149.00
2023-02-14T19:09:13.656Z,102145.31
2023-02-14T19:11:41.701Z,102148.69
2023-02-14T19:14:10.612Z,102140.94
2023-02-14T19:16:53.503Z,102146.09
2023-02-14T19:19:22.842Z,102150.91
2023-02-14T19:21:50.786Z,102154.44
2023-02-14T19:24:19.850Z,102147.59
2023-02-14T19:26:48.344Z,102155.25
2023-02-14T19:29:18.268Z,102156.94
2023-02-14T19:31:49.632Z,102157.84
2023-02-14T19:34:24.039Z,102161.16
2023-02-14T19:36:53.411Z,102172.34
2023-02-14T19:39:23.068Z,102166.19
2023-02-14T19:41:51.293Z,102167.06
2023-02-14T19:44:19.433Z,102169.47
2023-02-14T19:46:47.887Z,102166.84
2023-02-14T19:49:20.594Z,102165.81
2023-02-14T19:51:51.195Z,102167.41
2023-02-14T19:54:19.642Z,102169.41
2023-02-14T19:56:47.920Z,102167.53
2023-02-14T19:59:20.341Z,102171.63
2023-02-14T20:01:51.431Z,102166.63
2023-02-14T20:04:23.356Z,102171.63
2023-02-14T20:06:51.805Z,102163.78
2023-02-14T20:09:23.517Z,102175.59
2023-02-14T20:11:54.492Z,102173.00
2023-02-14T20:14:40.934Z,102176.28
2023-02-14T20:17:17.952Z,102172.78
2023-02-14T20:19:45.828Z,102169.88
2023-02-14T20:22:13.630Z,102171.34
2023-02-14T20:24:41.607Z,102167.94
2023-02-14T20:27:09.085Z,102171.34
2023-02-14T20:29:39.052Z,102160.28
2023-02-14T20:32:07.102Z,102165.19
2023-02-14T20:34:35.392Z,102167.75
2023-02-14T20:37:02.993Z,102167.84
2023-02-14T20:39:35.061Z,102168.00
2023-02-14T20:42:02.819Z,102176.69
2023-02-14T20:44:31.124Z,102174.78
2023-02-14T20:46:58.933Z,102167.75
2023-02-14T20:49:28.552Z,102174.78
2023-02-14T20:51:56.837Z,102178.84
2023-02-14T20:54:26.764Z,102174.38
2023-02-14T20:56:54.546Z,102171.59
2023-02-14T20:59:28.911Z,102170.66
2023-02-14T21:01:58.364Z,102169.75
2023-02-14T21:04:26.872Z,102164.16
2023-02-14T21:06:54.681Z,102177.97
2023-02-14T21:09:22.572Z,102171.84
2023-02-14T21:11:50.417Z,102165.72
2023-02-14T21:14:18.276Z,102177.47
2023-02-14T21:16:45.941Z,102176.31
2023-02-14T21:19:13.806Z,102176.81
2023-02-14T21:21:41.743Z,102181.38
2023-02-14T21:24:15.314Z,102179.00
2023-02-14T21:26:43.515Z,102172.72
2023-02-14T21:29:11.797Z,102178.41
2023-02-14T21:31:39.741Z,102173.88
2023-02-14T21:34:07.675Z,102187.81
2023-02-14T21:36:35.995Z,102185.75
2023-02-14T21:39:05.169Z,102175.53
2023-02-14T21:41:32.894Z,102186.50
2023-02-14T21:44:02.078Z,102176.22
2023-02-14T21:46:32.370Z,102183.59
2023-02-14T21:49:23.968Z,102174.53
2023-02-14T21:51:51.925Z,102175.00
2023-02-14T21:54:19.796Z,102174.41
2023-02-14T21:56:49.245Z,102173.44
2023-02-14T21:59:17.408Z,102176.41
2023-02-14T22:01:45.023Z,102174.28
2023-02-14T22:04:13.507Z,102178.69
2023-02-14T22:06:42.534Z,102175.47
2023-02-14T22:09:12.798Z,102180.72
2023-02-14T22:11:40.500Z,102175.63
2023-02-14T22:14:08.713Z,102179.13
2023-02-14T22:16:36.904Z,102181.91
2023-02-14T22:19:06.005Z,102169.84
2023-02-14T22:21:34.065Z,102174.44
2023-02-14T22:24:02.078Z,102162.69
2023-02-14T22:26:38.730Z,102174.91
2023-02-14T22:29:08.111Z,102172.44
2023-02-14T22:31:41.996Z,102175.25
2023-02-14T22:34:13.720Z,102169.44
2023-02-14T22:36:41.768Z,102158.91
2023-02-14T22:39:10.713Z,102162.81
2023-02-14T22:41:38.444Z,102161.78
2023-02-14T22:44:07.201Z,102165.28
2023-02-14T22:46:36.832Z,102169.69
2023-02-14T22:49:05.908Z,102170.69
2023-02-14T22:51:41.866Z,102172.44
2023-02-14T22:54:15.315Z,102163.84
2023-02-14T22:56:51.638Z,102162.16
2023-02-14T22:59:23.113Z,102169.91
2023-02-14T23:01:52.789Z,102158.91
2023-02-14T23:04:22.801Z,102169.31
2023-02-14T23:06:52.027Z,102158.97
2023-02-14T23:09:20.440Z,102160.75
2023-02-14T23:11:48.817Z,102162.56
2023-02-14T23:14:36.753Z,102164.34
2023-02-14T23:17:25.146Z,102166.16
2023-02-14T23:20:11.596Z,102159.16
2023-02-14T23:22:41.152Z,102155.59
2023-02-14T23:25:11.983Z,102162.16
2023-02-14T23:27:43.468Z,102154.16
2023-02-14T23:30:14.795Z,102160.19
2023-02-14T23:32:42.473Z,102151.31
2023-02-14T23:35:10.386Z,102155.75
2023-02-14T23:37:38.392Z,102163.53
2023-02-14T23:40:07.195Z,102158.41
2023-02-14T23:42:34.760Z,102156.69
2023-02-14T23:45:21.357Z,102151.59
2023-02-14T23:47:49.039Z,102153.47
2023-02-14T23:50:17.260Z,102154.47
2023-02-14T23:52:44.863Z,102166.69
2023-02-14T23:55:13.072Z,102164.06
2023-02-14T23:57:40.659Z,102155.44
